sensor_id;sensor_type;location;lat;lon;timestamp;P1;durP1;ratioP1;P2;durP2;ratioP2
71622;SDS011;59473;53.214;5.728;2023-09-12T00:01:56;41.40;;;21.05;;
71622;SDS011;59473;53.214;5.728;2023-09-12T00:04:22;36.83;;;20.50;;
71622;SDS011;59473;53.214;5.728;2023-09-12T00:06:47;42.80;;;20.70;;
71622;SDS011;59473;53.214;5.728;2023-09-12T00:09:12;39.27;;;20.50;;
71622;SDS011;59473;53.214;5.728;2023-09-12T00:11:37;38.37;;;21.03;;
71622;SDS011;59473;53.214;5.728;2023-09-12T00:14:02;38.73;;;21.30;;
71622;SDS011;59473;53.214;5.728;2023-09-12T00:16:28;41.00;;;22.07;;
71622;SDS011;59473;53.214;5.728;2023-09-12T00:18:53;39.37;;;22.13;;
71622;SDS011;59473;53.214;5.728;2023-09-12T00:21:18;40.80;;;21.77;;
71622;SDS011;59473;53.214;5.728;2023-09-12T00:23:43;39.60;;;21.03;;
71622;SDS011;59473;53.214;5.728;2023-09-12T00:26:09;37.80;;;20.67;;
71622;SDS011;59473;53.214;5.728;2023-09-12T00:28:34;44.83;;;23.33;;
71622;SDS011;59473;53.214;5.728;2023-09-12T00:30:59;42.97;;;21.43;;
71622;SDS011;59473;53.214;5.728;2023-09-12T00:33:24;37.53;;;20.20;;
71622;SDS011;59473;53.214;5.728;2023-09-12T00:35:50;38.17;;;19.43;;
71622;SDS011;59473;53.214;5.728;2023-09-12T00:38:15;35.57;;;20.03;;
71622;SDS011;59473;53.214;5.728;2023-09-12T00:40:40;35.07;;;20.60;;
71622;SDS011;59473;53.214;5.728;2023-09-12T00:43:05;38.13;;;19.60;;
71622;SDS011;59473;53.214;5.728;2023-09-12T00:45:31;38.43;;;20.70;;
71622;SDS011;59473;53.214;5.728;2023-09-12T00:47:57;35.17;;;20.73;;
71622;SDS011;59473;53.214;5.728;2023-09-12T00:50:23;40.13;;;21.15;;
71622;SDS011;59473;53.214;5.728;2023-09-12T00:52:50;33.70;;;19.92;;
71622;SDS011;59473;53.214;5.728;2023-09-12T00:55:15;42.47;;;22.47;;
71622;SDS011;59473;53.214;5.728;2023-09-12T00:57:41;38.85;;;21.73;;
71622;SDS011;59473;53.214;5.728;2023-09-12T01:00:07;41.47;;;21.73;;
71622;SDS011;59473;53.214;5.728;2023-09-12T01:02:41;41.47;;;22.55;;
71622;SDS011;59473;53.214;5.728;2023-09-12T01:05:06;42.33;;;22.63;;
71622;SDS011;59473;53.214;5.728;2023-09-12T01:07:32;45.17;;;23.50;;
71622;SDS011;59473;53.214;5.728;2023-09-12T01:09:58;41.22;;;22.73;;
71622;SDS011;59473;53.214;5.728;2023-09-12T01:12:23;40.20;;;23.17;;
71622;SDS011;59473;53.214;5.728;2023-09-12T01:14:48;41.53;;;23.20;;
71622;SDS011;59473;53.214;5.728;2023-09-12T01:17:14;39.57;;;21.50;;
71622;SDS011;59473;53.214;5.728;2023-09-12T01:19:39;39.72;;;21.63;;
71622;SDS011;59473;53.214;5.728;2023-09-12T01:24:54;42.37;;;21.73;;
71622;SDS011;59473;53.214;5.728;2023-09-12T01:27:27;39.28;;;19.58;;
71622;SDS011;59473;53.214;5.728;2023-09-12T01:29:56;29.25;;;17.95;;
71622;SDS011;59473;53.214;5.728;2023-09-12T01:32:22;29.55;;;16.52;;
71622;SDS011;59473;53.214;5.728;2023-09-12T01:34:47;34.77;;;19.23;;
71622;SDS011;59473;53.214;5.728;2023-09-12T01:37:13;32.77;;;18.87;;
71622;SDS011;59473;53.214;5.728;2023-09-12T01:39:38;38.27;;;20.57;;
71622;SDS011;59473;53.214;5.728;2023-09-12T01:42:03;39.97;;;20.73;;
71622;SDS011;59473;53.214;5.728;2023-09-12T01:44:29;42.03;;;21.25;;
71622;SDS011;59473;53.214;5.728;2023-09-12T01:46:55;40.05;;;22.02;;
71622;SDS011;59473;53.214;5.728;2023-09-12T01:49:22;41.42;;;22.77;;
71622;SDS011;59473;53.214;5.728;2023-09-12T01:51:49;39.92;;;21.52;;
71622;SDS011;59473;53.214;5.728;2023-09-12T01:54:15;39.92;;;22.05;;
71622;SDS011;59473;53.214;5.728;2023-09-12T01:56:41;40.72;;;22.38;;
71622;SDS011;59473;53.214;5.728;2023-09-12T01:59:06;43.53;;;22.63;;
71622;SDS011;59473;53.214;5.728;2023-09-12T02:01:32;39.33;;;22.13;;
71622;SDS011;59473;53.214;5.728;2023-09-12T02:03:57;39.60;;;21.57;;
71622;SDS011;59473;53.214;5.728;2023-09-12T02:06:22;45.30;;;23.33;;
71622;SDS011;59473;53.214;5.728;2023-09-12T02:08:48;41.27;;;22.50;;
71622;SDS011;59473;53.214;5.728;2023-09-12T02:11:13;42.20;;;23.43;;
71622;SDS011;59473;53.214;5.728;2023-09-12T02:13:39;43.50;;;22.97;;
71622;SDS011;59473;53.214;5.728;2023-09-12T02:16:04;37.40;;;21.02;;
71622;SDS011;59473;53.214;5.728;2023-09-12T02:18:29;40.60;;;21.42;;
71622;SDS011;59473;53.214;5.728;2023-09-12T02:20:54;37.05;;;20.98;;
71622;SDS011;59473;53.214;5.728;2023-09-12T02:23:19;40.05;;;21.90;;
71622;SDS011;59473;53.214;5.728;2023-09-12T02:25:45;44.42;;;23.27;;
71622;SDS011;59473;53.214;5.728;2023-09-12T02:28:10;42.17;;;22.38;;
71622;SDS011;59473;53.214;5.728;2023-09-12T02:30:37;44.08;;;22.73;;
71622;SDS011;59473;53.214;5.728;2023-09-12T02:33:03;47.10;;;24.58;;
71622;SDS011;59473;53.214;5.728;2023-09-12T02:35:28;47.67;;;22.37;;
71622;SDS011;59473;53.214;5.728;2023-09-12T02:37:54;43.58;;;22.40;;
71622;SDS011;59473;53.214;5.728;2023-09-12T02:40:19;50.83;;;22.87;;
71622;SDS011;59473;53.214;5.728;2023-09-12T02:42:44;51.03;;;24.67;;
71622;SDS011;59473;53.214;5.728;2023-09-12T02:45:09;43.00;;;22.90;;
71622;SDS011;59473;53.214;5.728;2023-09-12T02:47:35;40.23;;;20.93;;
71622;SDS011;59473;53.214;5.728;2023-09-12T02:50:00;44.90;;;22.27;;
71622;SDS011;59473;53.214;5.728;2023-09-12T02:52:25;37.87;;;21.70;;
71622;SDS011;59473;53.214;5.728;2023-09-12T02:54:51;39.30;;;19.93;;
71622;SDS011;59473;53.214;5.728;2023-09-12T02:57:16;44.10;;;21.27;;
71622;SDS011;59473;53.214;5.728;2023-09-12T02:59:41;45.30;;;21.25;;
71622;SDS011;59473;53.214;5.728;2023-09-12T03:02:06;46.45;;;20.73;;
71622;SDS011;59473;53.214;5.728;2023-09-12T03:04:33;38.35;;;19.88;;
71622;SDS011;59473;53.214;5.728;2023-09-12T03:06:58;37.42;;;20.20;;
71622;SDS011;59473;53.214;5.728;2023-09-12T03:09:23;39.20;;;20.80;;
71622;SDS011;59473;53.214;5.728;2023-09-12T03:11:49;41.53;;;20.67;;
71622;SDS011;59473;53.214;5.728;2023-09-12T03:14:14;38.37;;;20.67;;
71622;SDS011;59473;53.214;5.728;2023-09-12T03:16:40;37.73;;;20.23;;
71622;SDS011;59473;53.214;5.728;2023-09-12T03:19:05;45.03;;;21.33;;
71622;SDS011;59473;53.214;5.728;2023-09-12T03:21:30;40.97;;;19.77;;
71622;SDS011;59473;53.214;5.728;2023-09-12T03:23:56;41.22;;;21.15;;
71622;SDS011;59473;53.214;5.728;2023-09-12T03:26:21;41.80;;;21.00;;
71622;SDS011;59473;53.214;5.728;2023-09-12T03:28:48;40.95;;;20.83;;
71622;SDS011;59473;53.214;5.728;2023-09-12T03:31:13;42.20;;;20.13;;
71622;SDS011;59473;53.214;5.728;2023-09-12T03:33:42;40.53;;;20.40;;
71622;SDS011;59473;53.214;5.728;2023-09-12T03:36:08;44.77;;;22.40;;
71622;SDS011;59473;53.214;5.728;2023-09-12T03:38:33;39.05;;;19.48;;
71622;SDS011;59473;53.214;5.728;2023-09-12T03:40:59;47.27;;;22.53;;
71622;SDS011;59473;53.214;5.728;2023-09-12T03:43:24;49.40;;;21.98;;
71622;SDS011;59473;53.214;5.728;2023-09-12T03:45:50;43.97;;;21.50;;
71622;SDS011;59473;53.214;5.728;2023-09-12T03:48:15;47.57;;;21.80;;
71622;SDS011;59473;53.214;5.728;2023-09-12T03:50:40;47.40;;;23.13;;
71622;SDS011;59473;53.214;5.728;2023-09-12T03:53:05;44.77;;;22.57;;
71622;SDS011;59473;53.214;5.728;2023-09-12T03:55:31;45.73;;;22.40;;
71622;SDS011;59473;53.214;5.728;2023-09-12T03:57:56;55.42;;;24.13;;
71622;SDS011;59473;53.214;5.728;2023-09-12T04:00:22;49.67;;;23.80;;
71622;SDS011;59473;53.214;5.728;2023-09-12T04:02:47;50.47;;;22.33;;
71622;SDS011;59473;53.214;5.728;2023-09-12T04:05:13;46.00;;;22.77;;
71622;SDS011;59473;53.214;5.728;2023-09-12T04:07:39;45.20;;;22.37;;
71622;SDS011;59473;53.214;5.728;2023-09-12T04:10:04;46.30;;;21.85;;
71622;SDS011;59473;53.214;5.728;2023-09-12T04:12:29;50.05;;;23.48;;
71622;SDS011;59473;53.214;5.728;2023-09-12T04:14:54;50.40;;;24.13;;
71622;SDS011;59473;53.214;5.728;2023-09-12T04:17:20;55.70;;;25.80;;
71622;SDS011;59473;53.214;5.728;2023-09-12T04:19:45;61.43;;;26.57;;
71622;SDS011;59473;53.214;5.728;2023-09-12T04:22:10;63.63;;;25.40;;
71622;SDS011;59473;53.214;5.728;2023-09-12T04:24:36;62.67;;;26.63;;
71622;SDS011;59473;53.214;5.728;2023-09-12T04:27:01;75.63;;;28.23;;
71622;SDS011;59473;53.214;5.728;2023-09-12T04:29:26;66.73;;;26.63;;
71622;SDS011;59473;53.214;5.728;2023-09-12T04:31:53;72.22;;;28.75;;
71622;SDS011;59473;53.214;5.728;2023-09-12T04:34:24;83.32;;;28.77;;
71622;SDS011;59473;53.214;5.728;2023-09-12T04:36:49;82.83;;;29.13;;
71622;SDS011;59473;53.214;5.728;2023-09-12T04:39:14;91.20;;;30.93;;
71622;SDS011;59473;53.214;5.728;2023-09-12T04:41:40;84.73;;;30.30;;
71622;SDS011;59473;53.214;5.728;2023-09-12T04:44:05;79.87;;;28.63;;
71622;SDS011;59473;53.214;5.728;2023-09-12T04:46:30;88.07;;;29.53;;
71622;SDS011;59473;53.214;5.728;2023-09-12T04:48:55;83.97;;;28.93;;
71622;SDS011;59473;53.214;5.728;2023-09-12T04:51:21;101.87;;;29.73;;
71622;SDS011;59473;53.214;5.728;2023-09-12T04:53:46;100.43;;;29.40;;
71622;SDS011;59473;53.214;5.728;2023-09-12T04:56:16;101.95;;;30.63;;
71622;SDS011;59473;53.214;5.728;2023-09-12T04:58:41;95.33;;;30.23;;
71622;SDS011;59473;53.214;5.728;2023-09-12T05:01:07;117.63;;;32.60;;
71622;SDS011;59473;53.214;5.728;2023-09-12T05:03:32;125.07;;;32.27;;
71622;SDS011;59473;53.214;5.728;2023-09-12T05:05:58;141.77;;;32.72;;
71622;SDS011;59473;53.214;5.728;2023-09-12T05:08:24;196.80;;;33.43;;
71622;SDS011;59473;53.214;5.728;2023-09-12T05:10:49;244.70;;;33.07;;
71622;SDS011;59473;53.214;5.728;2023-09-12T05:13:15;211.60;;;32.00;;
71622;SDS011;59473;53.214;5.728;2023-09-12T05:15:40;111.03;;;30.60;;
71622;SDS011;59473;53.214;5.728;2023-09-12T05:18:06;95.97;;;31.08;;
71622;SDS011;59473;53.214;5.728;2023-09-12T05:20:31;94.47;;;31.43;;
71622;SDS011;59473;53.214;5.728;2023-09-12T05:22:57;110.57;;;32.53;;
71622;SDS011;59473;53.214;5.728;2023-09-12T05:25:22;109.63;;;35.03;;
71622;SDS011;59473;53.214;5.728;2023-09-12T05:27:47;119.40;;;37.37;;
71622;SDS011;59473;53.214;5.728;2023-09-12T05:30:12;116.53;;;36.40;;
71622;SDS011;59473;53.214;5.728;2023-09-12T05:32:38;112.50;;;36.20;;
71622;SDS011;59473;53.214;5.728;2023-09-12T05:35:03;122.13;;;36.93;;
71622;SDS011;59473;53.214;5.728;2023-09-12T05:37:29;128.55;;;37.90;;
71622;SDS011;59473;53.214;5.728;2023-09-12T05:39:54;131.90;;;38.60;;
71622;SDS011;59473;53.214;5.728;2023-09-12T05:42:19;125.67;;;37.40;;
71622;SDS011;59473;53.214;5.728;2023-09-12T05:44:49;105.20;;;35.87;;
71622;SDS011;59473;53.214;5.728;2023-09-12T05:47:15;123.25;;;38.13;;
71622;SDS011;59473;53.214;5.728;2023-09-12T05:49:40;126.40;;;39.88;;
71622;SDS011;59473;53.214;5.728;2023-09-12T05:52:05;107.07;;;35.93;;
71622;SDS011;59473;53.214;5.728;2023-09-12T05:54:30;115.87;;;37.07;;
71622;SDS011;59473;53.214;5.728;2023-09-12T05:56:56;108.17;;;35.53;;
71622;SDS011;59473;53.214;5.728;2023-09-12T05:59:21;114.40;;;35.77;;
71622;SDS011;59473;53.214;5.728;2023-09-12T06:01:46;111.17;;;34.07;;
71622;SDS011;59473;53.214;5.728;2023-09-12T06:04:11;99.53;;;34.80;;
71622;SDS011;59473;53.214;5.728;2023-09-12T06:06:37;108.87;;;35.30;;
71622;SDS011;59473;53.214;5.728;2023-09-12T06:09:02;89.20;;;32.13;;
71622;SDS011;59473;53.214;5.728;2023-09-12T06:11:28;87.53;;;33.13;;
71622;SDS011;59473;53.214;5.728;2023-09-12T06:13:53;100.40;;;34.60;;
71622;SDS011;59473;53.214;5.728;2023-09-12T06:16:19;93.27;;;34.47;;
71622;SDS011;59473;53.214;5.728;2023-09-12T06:18:44;99.30;;;35.50;;
71622;SDS011;59473;53.214;5.728;2023-09-12T06:21:09;98.00;;;34.30;;
71622;SDS011;59473;53.214;5.728;2023-09-12T06:23:34;88.47;;;32.83;;
71622;SDS011;59473;53.214;5.728;2023-09-12T06:26:00;96.25;;;35.50;;
71622;SDS011;59473;53.214;5.728;2023-09-12T06:28:28;89.80;;;35.40;;
71622;SDS011;59473;53.214;5.728;2023-09-12T06:30:55;92.53;;;32.57;;
71622;SDS011;59473;53.214;5.728;2023-09-12T06:33:21;85.75;;;34.10;;
71622;SDS011;59473;53.214;5.728;2023-09-12T06:35:50;89.67;;;32.87;;
71622;SDS011;59473;53.214;5.728;2023-09-12T06:38:17;71.75;;;31.63;;
71622;SDS011;59473;53.214;5.728;2023-09-12T06:40:43;76.20;;;31.43;;
71622;SDS011;59473;53.214;5.728;2023-09-12T06:43:08;64.50;;;29.60;;
71622;SDS011;59473;53.214;5.728;2023-09-12T06:45:33;64.80;;;29.47;;
71622;SDS011;59473;53.214;5.728;2023-09-12T06:48:01;61.67;;;29.43;;
71622;SDS011;59473;53.214;5.728;2023-09-12T06:50:26;66.63;;;29.52;;
71622;SDS011;59473;53.214;5.728;2023-09-12T06:52:52;66.00;;;28.13;;
71622;SDS011;59473;53.214;5.728;2023-09-12T06:55:17;56.20;;;27.67;;
71622;SDS011;59473;53.214;5.728;2023-09-12T06:57:42;63.13;;;28.02;;
71622;SDS011;59473;53.214;5.728;2023-09-12T07:00:08;61.92;;;28.80;;
71622;SDS011;59473;53.214;5.728;2023-09-12T07:02:33;60.47;;;29.20;;
71622;SDS011;59473;53.214;5.728;2023-09-12T07:04:59;64.03;;;28.97;;
71622;SDS011;59473;53.214;5.728;2023-09-12T07:07:24;60.33;;;29.30;;
71622;SDS011;59473;53.214;5.728;2023-09-12T07:09:49;63.53;;;29.13;;
71622;SDS011;59473;53.214;5.728;2023-09-12T07:12:14;56.00;;;28.43;;
71622;SDS011;59473;53.214;5.728;2023-09-12T07:14:40;53.90;;;27.73;;
71622;SDS011;59473;53.214;5.728;2023-09-12T07:17:05;53.10;;;27.83;;
71622;SDS011;59473;53.214;5.728;2023-09-12T07:19:31;55.40;;;26.53;;
71622;SDS011;59473;53.214;5.728;2023-09-12T07:21:56;67.63;;;27.83;;
71622;SDS011;59473;53.214;5.728;2023-09-12T07:24:24;55.58;;;27.30;;
71622;SDS011;59473;53.214;5.728;2023-09-12T07:26:49;50.47;;;26.00;;
71622;SDS011;59473;53.214;5.728;2023-09-12T07:29:15;50.50;;;24.57;;
71622;SDS011;59473;53.214;5.728;2023-09-12T07:31:40;50.67;;;24.67;;
71622;SDS011;59473;53.214;5.728;2023-09-12T07:34:05;45.33;;;23.27;;
71622;SDS011;59473;53.214;5.728;2023-09-12T07:36:30;40.60;;;21.27;;
71622;SDS011;59473;53.214;5.728;2023-09-12T07:38:56;42.43;;;21.50;;
71622;SDS011;59473;53.214;5.728;2023-09-12T07:41:21;38.47;;;21.33;;
71622;SDS011;59473;53.214;5.728;2023-09-12T07:43:46;37.73;;;19.43;;
71622;SDS011;59473;53.214;5.728;2023-09-12T07:46:11;39.83;;;20.47;;
71622;SDS011;59473;53.214;5.728;2023-09-12T07:48:37;33.70;;;19.73;;
71622;SDS011;59473;53.214;5.728;2023-09-12T07:51:10;33.00;;;18.93;;
71622;SDS011;59473;53.214;5.728;2023-09-12T07:53:36;34.75;;;19.35;;
71622;SDS011;59473;53.214;5.728;2023-09-12T07:56:01;35.53;;;17.57;;
71622;SDS011;59473;53.214;5.728;2023-09-12T07:58:26;35.57;;;17.40;;
71622;SDS011;59473;53.214;5.728;2023-09-12T08:00:51;31.87;;;17.17;;
71622;SDS011;59473;53.214;5.728;2023-09-12T08:03:17;30.07;;;16.63;;
71622;SDS011;59473;53.214;5.728;2023-09-12T08:05:42;28.80;;;14.17;;
71622;SDS011;59473;53.214;5.728;2023-09-12T08:08:07;29.47;;;14.90;;
71622;SDS011;59473;53.214;5.728;2023-09-12T08:10:33;32.97;;;16.23;;
71622;SDS011;59473;53.214;5.728;2023-09-12T08:12:58;29.33;;;15.63;;
71622;SDS011;59473;53.214;5.728;2023-09-12T08:15:23;31.40;;;15.57;;
71622;SDS011;59473;53.214;5.728;2023-09-12T08:17:49;30.23;;;15.07;;
71622;SDS011;59473;53.214;5.728;2023-09-12T08:20:17;29.85;;;15.05;;
71622;SDS011;59473;53.214;5.728;2023-09-12T08:22:42;28.33;;;14.05;;
71622;SDS011;59473;53.214;5.728;2023-09-12T08:25:07;25.17;;;13.57;;
71622;SDS011;59473;53.214;5.728;2023-09-12T08:27:33;25.30;;;14.13;;
71622;SDS011;59473;53.214;5.728;2023-09-12T08:29:58;27.47;;;13.73;;
71622;SDS011;59473;53.214;5.728;2023-09-12T08:32:23;25.90;;;14.27;;
71622;SDS011;59473;53.214;5.728;2023-09-12T08:34:48;27.20;;;13.93;;
71622;SDS011;59473;53.214;5.728;2023-09-12T08:37:13;26.50;;;14.27;;
71622;SDS011;59473;53.214;5.728;2023-09-12T08:39:42;28.47;;;15.53;;
71622;SDS011;59473;53.214;5.728;2023-09-12T08:42:10;27.38;;;13.43;;
71622;SDS011;59473;53.214;5.728;2023-09-12T08:44:36;23.48;;;11.32;;
71622;SDS011;59473;53.214;5.728;2023-09-12T08:47:01;19.70;;;11.50;;
71622;SDS011;59473;53.214;5.728;2023-09-12T08:49:27;21.03;;;11.87;;
71622;SDS011;59473;53.214;5.728;2023-09-12T08:51:53;19.73;;;10.60;;
71622;SDS011;59473;53.214;5.728;2023-09-12T08:54:19;17.73;;;9.30;;
71622;SDS011;59473;53.214;5.728;2023-09-12T08:56:44;21.10;;;10.30;;
71622;SDS011;59473;53.214;5.728;2023-09-12T08:59:10;17.27;;;9.07;;
71622;SDS011;59473;53.214;5.728;2023-09-12T09:01:35;23.97;;;8.97;;
71622;SDS011;59473;53.214;5.728;2023-09-12T09:04:01;19.27;;;10.05;;
71622;SDS011;59473;53.214;5.728;2023-09-12T09:06:27;21.63;;;10.35;;
71622;SDS011;59473;53.214;5.728;2023-09-12T09:08:54;20.63;;;10.32;;
71622;SDS011;59473;53.214;5.728;2023-09-12T09:11:20;21.07;;;9.20;;
71622;SDS011;59473;53.214;5.728;2023-09-12T09:13:45;19.53;;;8.60;;
71622;SDS011;59473;53.214;5.728;2023-09-12T09:16:18;16.08;;;8.75;;
71622;SDS011;59473;53.214;5.728;2023-09-12T09:21:18;20.48;;;10.18;;
71622;SDS011;59473;53.214;5.728;2023-09-12T09:23:44;19.90;;;10.73;;
71622;SDS011;59473;53.214;5.728;2023-09-12T09:26:10;17.98;;;10.35;;
71622;SDS011;59473;53.214;5.728;2023-09-12T09:28:36;22.60;;;10.40;;
71622;SDS011;59473;53.214;5.728;2023-09-12T09:31:01;22.42;;;10.85;;
71622;SDS011;59473;53.214;5.728;2023-09-12T09:33:29;20.67;;;11.15;;
71622;SDS011;59473;53.214;5.728;2023-09-12T09:36:03;18.65;;;9.32;;
71622;SDS011;59473;53.214;5.728;2023-09-12T09:38:29;19.67;;;8.97;;
71622;SDS011;59473;53.214;5.728;2023-09-12T09:40:54;18.33;;;9.40;;
71622;SDS011;59473;53.214;5.728;2023-09-12T09:43:20;21.33;;;9.70;;
71622;SDS011;59473;53.214;5.728;2023-09-12T09:45:46;21.35;;;10.18;;
71622;SDS011;59473;53.214;5.728;2023-09-12T09:48:21;21.83;;;10.40;;
71622;SDS011;59473;53.214;5.728;2023-09-12T09:50:46;18.73;;;9.57;;
71622;SDS011;59473;53.214;5.728;2023-09-12T09:53:12;19.03;;;10.00;;
71622;SDS011;59473;53.214;5.728;2023-09-12T09:55:37;22.03;;;10.60;;
71622;SDS011;59473;53.214;5.728;2023-09-12T09:58:05;24.30;;;12.00;;
71622;SDS011;59473;53.214;5.728;2023-09-12T10:00:30;18.25;;;10.23;;
71622;SDS011;59473;53.214;5.728;2023-09-12T10:02:58;19.70;;;10.45;;
71622;SDS011;59473;53.214;5.728;2023-09-12T10:05:24;16.92;;;9.20;;
71622;SDS011;59473;53.214;5.728;2023-09-12T10:07:50;17.30;;;8.00;;
71622;SDS011;59473;53.214;5.728;2023-09-12T10:10:18;15.33;;;8.57;;
71622;SDS011;59473;53.214;5.728;2023-09-12T10:12:50;18.60;;;8.13;;
71622;SDS011;59473;53.214;5.728;2023-09-12T10:15:19;16.77;;;7.80;;
71622;SDS011;59473;53.214;5.728;2023-09-12T10:17:46;17.95;;;10.32;;
71622;SDS011;59473;53.214;5.728;2023-09-12T10:20:14;16.60;;;10.32;;
71622;SDS011;59473;53.214;5.728;2023-09-12T10:22:40;22.77;;;11.23;;
71622;SDS011;59473;53.214;5.728;2023-09-12T10:25:08;18.10;;;11.85;;
71622;SDS011;59473;53.214;5.728;2023-09-12T10:27:34;18.13;;;10.18;;
71622;SDS011;59473;53.214;5.728;2023-09-12T10:29:59;20.83;;;11.47;;
71622;SDS011;59473;53.214;5.728;2023-09-12T10:32:26;19.10;;;10.40;;
71622;SDS011;59473;53.214;5.728;2023-09-12T10:34:52;16.70;;;10.02;;
71622;SDS011;59473;53.214;5.728;2023-09-12T10:37:19;16.60;;;10.52;;
71622;SDS011;59473;53.214;5.728;2023-09-12T10:39:46;18.13;;;10.60;;
71622;SDS011;59473;53.214;5.728;2023-09-12T10:42:12;16.17;;;10.60;;
71622;SDS011;59473;53.214;5.728;2023-09-12T10:44:37;21.75;;;11.35;;
71622;SDS011;59473;53.214;5.728;2023-09-12T10:47:03;18.97;;;10.63;;
71622;SDS011;59473;53.214;5.728;2023-09-12T10:49:29;17.70;;;10.00;;
71622;SDS011;59473;53.214;5.728;2023-09-12T10:51:54;13.70;;;8.40;;
71622;SDS011;59473;53.214;5.728;2023-09-12T10:54:24;18.63;;;12.02;;
71622;SDS011;59473;53.214;5.728;2023-09-12T10:57:03;16.70;;;10.70;;
71622;SDS011;59473;53.214;5.728;2023-09-12T10:59:28;16.63;;;10.45;;
71622;SDS011;59473;53.214;5.728;2023-09-12T11:01:57;17.53;;;9.70;;
71622;SDS011;59473;53.214;5.728;2023-09-12T11:04:41;14.00;;;8.82;;
71622;SDS011;59473;53.214;5.728;2023-09-12T11:07:29;15.53;;;8.67;;
71622;SDS011;59473;53.214;5.728;2023-09-12T11:10:14;15.73;;;10.07;;
71622;SDS011;59473;53.214;5.728;2023-09-12T11:12:37;13.77;;;8.13;;
71622;SDS011;59473;53.214;5.728;2023-09-12T11:15:03;13.03;;;8.13;;
71622;SDS011;59473;53.214;5.728;2023-09-12T11:17:30;16.55;;;7.68;;
71622;SDS011;59473;53.214;5.728;2023-09-12T11:20:02;13.15;;;6.70;;
71622;SDS011;59473;53.214;5.728;2023-09-12T11:22:30;9.98;;;6.95;;
71622;SDS011;59473;53.214;5.728;2023-09-12T11:24:56;11.57;;;7.38;;
71622;SDS011;59473;53.214;5.728;2023-09-12T11:27:25;11.88;;;8.00;;
71622;SDS011;59473;53.214;5.728;2023-09-12T11:30:00;11.18;;;7.30;;
71622;SDS011;59473;53.214;5.728;2023-09-12T11:32:32;11.52;;;7.13;;
71622;SDS011;59473;53.214;5.728;2023-09-12T11:34:57;9.30;;;6.15;;
71622;SDS011;59473;53.214;5.728;2023-09-12T11:37:24;11.45;;;6.00;;
71622;SDS011;59473;53.214;5.728;2023-09-12T11:39:50;11.63;;;6.57;;
71622;SDS011;59473;53.214;5.728;2023-09-12T11:42:17;10.88;;;5.82;;
71622;SDS011;59473;53.214;5.728;2023-09-12T11:44:43;8.65;;;5.30;;
71622;SDS011;59473;53.214;5.728;2023-09-12T11:47:10;12.37;;;6.23;;
71622;SDS011;59473;53.214;5.728;2023-09-12T11:49:39;11.40;;;6.72;;
71622;SDS011;59473;53.214;5.728;2023-09-12T11:52:08;8.50;;;4.38;;
71622;SDS011;59473;53.214;5.728;2023-09-12T11:54:33;10.93;;;5.13;;
71622;SDS011;59473;53.214;5.728;2023-09-12T11:56:59;9.70;;;4.73;;
71622;SDS011;59473;53.214;5.728;2023-09-12T11:59:27;12.00;;;5.88;;
71622;SDS011;59473;53.214;5.728;2023-09-12T12:01:52;8.57;;;4.50;;
71622;SDS011;59473;53.214;5.728;2023-09-12T12:04:22;8.45;;;4.10;;
71622;SDS011;59473;53.214;5.728;2023-09-12T12:06:51;11.30;;;3.85;;
71622;SDS011;59473;53.214;5.728;2023-09-12T12:09:17;9.82;;;5.68;;
71622;SDS011;59473;53.214;5.728;2023-09-12T12:11:46;12.45;;;6.25;;
71622;SDS011;59473;53.214;5.728;2023-09-12T12:14:15;13.83;;;5.60;;
71622;SDS011;59473;53.214;5.728;2023-09-12T12:16:41;9.25;;;4.53;;
71622;SDS011;59473;53.214;5.728;2023-09-12T12:19:07;12.38;;;5.80;;
71622;SDS011;59473;53.214;5.728;2023-09-12T12:21:32;10.00;;;4.63;;
71622;SDS011;59473;53.214;5.728;2023-09-12T12:23:59;10.07;;;4.10;;
71622;SDS011;59473;53.214;5.728;2023-09-12T12:26:24;12.13;;;5.90;;
71622;SDS011;59473;53.214;5.728;2023-09-12T12:28:49;10.20;;;6.07;;
71622;SDS011;59473;53.214;5.728;2023-09-12T12:31:15;14.17;;;6.83;;
71622;SDS011;59473;53.214;5.728;2023-09-12T12:33:40;14.07;;;6.00;;
71622;SDS011;59473;53.214;5.728;2023-09-12T12:36:05;10.80;;;5.45;;
71622;SDS011;59473;53.214;5.728;2023-09-12T12:38:36;11.23;;;5.85;;
71622;SDS011;59473;53.214;5.728;2023-09-12T12:41:02;10.40;;;6.30;;
71622;SDS011;59473;53.214;5.728;2023-09-12T12:43:27;13.93;;;5.83;;
71622;SDS011;59473;53.214;5.728;2023-09-12T12:45:56;8.50;;;4.93;;
71622;SDS011;59473;53.214;5.728;2023-09-12T12:50:57;9.00;;;4.70;;
71622;SDS011;59473;53.214;5.728;2023-09-12T12:53:41;13.83;;;5.87;;
71622;SDS011;59473;53.214;5.728;2023-09-12T12:56:06;12.07;;;5.30;;
71622;SDS011;59473;53.214;5.728;2023-09-12T12:58:32;12.53;;;5.23;;
71622;SDS011;59473;53.214;5.728;2023-09-12T13:00:58;11.25;;;5.28;;
71622;SDS011;59473;53.214;5.728;2023-09-12T13:03:23;11.17;;;4.70;;
71622;SDS011;59473;53.214;5.728;2023-09-12T13:05:48;9.90;;;4.83;;
71622;SDS011;59473;53.214;5.728;2023-09-12T13:08:14;11.30;;;4.10;;
71622;SDS011;59473;53.214;5.728;2023-09-12T13:10:39;10.23;;;4.88;;
71622;SDS011;59473;53.214;5.728;2023-09-12T13:13:07;10.43;;;3.50;;
71622;SDS011;59473;53.214;5.728;2023-09-12T13:15:32;6.90;;;3.40;;
71622;SDS011;59473;53.214;5.728;2023-09-12T13:17:57;11.97;;;3.50;;
71622;SDS011;59473;53.214;5.728;2023-09-12T13:20:23;9.00;;;3.63;;
71622;SDS011;59473;53.214;5.728;2023-09-12T13:22:48;10.23;;;3.17;;
71622;SDS011;59473;53.214;5.728;2023-09-12T13:25:14;7.93;;;3.47;;
71622;SDS011;59473;53.214;5.728;2023-09-12T13:27:39;7.78;;;3.25;;
71622;SDS011;59473;53.214;5.728;2023-09-12T13:30:05;8.50;;;3.40;;
71622;SDS011;59473;53.214;5.728;2023-09-12T13:32:30;11.50;;;3.13;;
71622;SDS011;59473;53.214;5.728;2023-09-12T13:34:55;7.47;;;3.17;;
71622;SDS011;59473;53.214;5.728;2023-09-12T13:37:21;7.97;;;3.60;;
71622;SDS011;59473;53.214;5.728;2023-09-12T13:39:46;10.33;;;3.13;;
71622;SDS011;59473;53.214;5.728;2023-09-12T13:42:14;9.50;;;3.70;;
71622;SDS011;59473;53.214;5.728;2023-09-12T13:44:43;9.48;;;3.38;;
71622;SDS011;59473;53.214;5.728;2023-09-12T13:47:08;7.70;;;3.63;;
71622;SDS011;59473;53.214;5.728;2023-09-12T13:49:33;8.07;;;3.27;;
71622;SDS011;59473;53.214;5.728;2023-09-12T13:51:59;9.17;;;3.30;;
71622;SDS011;59473;53.214;5.728;2023-09-12T13:54:24;8.87;;;4.00;;
71622;SDS011;59473;53.214;5.728;2023-09-12T13:56:49;8.80;;;3.20;;
71622;SDS011;59473;53.214;5.728;2023-09-12T13:59:14;7.53;;;2.90;;
71622;SDS011;59473;53.214;5.728;2023-09-12T14:01:41;6.90;;;3.05;;
71622;SDS011;59473;53.214;5.728;2023-09-12T14:04:06;7.60;;;2.92;;
71622;SDS011;59473;53.214;5.728;2023-09-12T14:06:32;9.52;;;3.50;;
71622;SDS011;59473;53.214;5.728;2023-09-12T14:08:57;9.73;;;3.28;;
71622;SDS011;59473;53.214;5.728;2023-09-12T14:11:23;8.17;;;3.40;;
71622;SDS011;59473;53.214;5.728;2023-09-12T14:13:48;8.90;;;3.50;;
71622;SDS011;59473;53.214;5.728;2023-09-12T14:16:13;7.60;;;3.40;;
71622;SDS011;59473;53.214;5.728;2023-09-12T14:18:38;8.63;;;3.17;;
71622;SDS011;59473;53.214;5.728;2023-09-12T14:21:03;9.23;;;3.57;;
71622;SDS011;59473;53.214;5.728;2023-09-12T14:23:29;9.37;;;2.90;;
71622;SDS011;59473;53.214;5.728;2023-09-12T14:25:54;7.03;;;3.00;;
71622;SDS011;59473;53.214;5.728;2023-09-12T14:28:19;9.45;;;3.08;;